KAKR/AKR METAR and TAF weather

Enter ICAO airport designator
Station Type Date Time Source
KAKR METAR 2020/09/25 18:54 UTC NOAA

KAKR 251854Z AUTO 12006KT 10SM CLR 26/13 A3002 RMK AO2 SLP161 T02610128


Station Type Date Time Source
KAKR Decoded METAR 2020/09/25 18:54 UTC NOAA

AKRON FULTON INTERNATIONAL, OH, United States (KAKR) 41-02N 081-28W 363M
Sep 25, 2020 - 02:54 PM EDT / 2020.09.25 1854 UTC
Wind: from the ESE (120 degrees) at 7 MPH (6 KT):0
Visibility: 10 mile(s):0
Sky conditions: clear
Temperature: 79.0 F (26.1 C)
Dew Point: 55.0 F (12.8 C)
Relative Humidity: 43%
Pressure (altimeter): 30.02 in. Hg (1016 hPa)
ob: KAKR 251854Z AUTO 12006KT 10SM CLR 26/13 A3002 RMK AO2 SLP161 T02610128
cycle: 19

Station Type Date Time Source
KAKR TAF UTC NOAA

Error!

Example: see airport list